createdAt,value
2019-01-02T00:01:33.537Z,8.43
2019-01-02T00:04:23.507Z,7.90
2019-01-02T00:07:13.703Z,7.77
2019-01-02T00:10:22.584Z,8.07
2019-01-02T00:13:12.596Z,8.17
2019-01-02T00:16:21.262Z,8.00
2019-01-02T00:19:10.750Z,8.23
2019-01-02T00:22:01.076Z,7.90
2019-01-02T00:24:51.505Z,8.20
2019-01-02T00:27:40.950Z,7.83
2019-01-02T00:30:30.598Z,7.97
2019-01-02T00:33:22.489Z,7.93
2019-01-02T00:36:12.176Z,7.67
2019-01-02T00:39:02.121Z,7.20
2019-01-02T00:41:51.892Z,7.27
2019-01-02T00:44:42.067Z,6.87
2019-01-02T00:47:50.728Z,5.70
2019-01-02T00:50:40.171Z,6.10
2019-01-02T00:53:30.194Z,5.97
2019-01-02T00:56:20.337Z,5.40
2019-01-02T00:59:11.709Z,5.80
2019-01-02T01:02:01.665Z,5.63
2019-01-02T01:04:51.371Z,6.00
2019-01-02T01:07:43.388Z,5.53
2019-01-02T01:10:33.106Z,5.63
2019-01-02T01:13:23.308Z,5.60
2019-01-02T01:16:13.122Z,5.50
2019-01-02T01:19:02.546Z,5.80
2019-01-02T01:21:52.018Z,5.70
2019-01-02T01:24:42.290Z,5.60
2019-01-02T01:27:33.789Z,5.77
2019-01-02T01:30:24.569Z,5.87
2019-01-02T01:33:14.402Z,5.30
2019-01-02T01:36:04.260Z,5.43
2019-01-02T01:38:53.751Z,5.60
2019-01-02T01:41:43.566Z,5.80
2019-01-02T01:44:33.609Z,5.73
2019-01-02T01:47:23.738Z,5.20
2019-01-02T01:50:14.030Z,5.60
2019-01-02T01:53:03.569Z,5.20
2019-01-02T01:55:52.996Z,5.20
2019-01-02T01:58:43.103Z,5.20
2019-01-02T02:01:32.808Z,5.40
2019-01-02T02:04:23.949Z,5.87
2019-01-02T02:07:15.101Z,5.40
2019-01-02T02:10:06.565Z,5.60
2019-01-02T02:12:56.523Z,5.80
2019-01-02T02:15:46.322Z,6.20
2019-01-02T02:18:35.799Z,5.70
2019-01-02T02:21:27.215Z,5.80
2019-01-02T02:24:17.497Z,6.00
2019-01-02T02:27:06.945Z,5.70
2019-01-02T02:29:56.424Z,5.90
2019-01-02T02:32:47.751Z,6.10
2019-01-02T02:35:37.943Z,5.90
2019-01-02T02:38:29.848Z,5.47
2019-01-02T02:41:21.320Z,6.63
2019-01-02T02:44:12.485Z,5.73
2019-01-02T02:47:02.502Z,5.40
2019-01-02T02:49:52.260Z,6.20
2019-01-02T02:52:42.432Z,5.20
2019-01-02T02:55:31.883Z,5.40
2019-01-02T02:58:23.601Z,5.53
2019-01-02T03:01:13.139Z,5.37
2019-01-02T03:04:03.268Z,5.47
2019-01-02T03:06:55.594Z,6.00
2019-01-02T03:09:46.637Z,5.77
2019-01-02T03:12:36.796Z,6.33
2019-01-02T03:15:26.538Z,5.80
2019-01-02T03:18:16.987Z,5.50
2019-01-02T03:21:06.778Z,5.50
2019-01-02T03:23:56.238Z,6.27
2019-01-02T03:26:45.996Z,6.00
2019-01-02T03:29:35.715Z,6.17
2019-01-02T03:32:27.181Z,5.80
2019-01-02T03:35:37.528Z,6.10
2019-01-02T03:38:27.246Z,5.70
2019-01-02T03:41:16.951Z,6.00
2019-01-02T03:44:06.910Z,5.90
2019-01-02T03:46:56.358Z,6.30
2019-01-02T03:49:45.828Z,5.97
2019-01-02T03:52:35.295Z,6.20
2019-01-02T03:55:25.384Z,6.23
2019-01-02T03:58:14.832Z,6.40
2019-01-02T04:01:04.648Z,6.60
2019-01-02T04:03:54.175Z,6.30
2019-01-02T04:06:43.856Z,6.67
2019-01-02T04:09:33.296Z,6.50
2019-01-02T04:12:23.213Z,6.77
2019-01-02T04:15:13.452Z,6.60
2019-01-02T04:18:02.967Z,6.33
2019-01-02T04:20:52.554Z,6.20
2019-01-02T04:23:42.247Z,6.23
2019-01-02T04:26:31.907Z,6.13
2019-01-02T04:29:21.673Z,6.57
2019-01-02T04:32:11.712Z,6.43
2019-01-02T04:38:14.980Z,6.97
2019-01-02T04:41:23.863Z,6.60
2019-01-02T04:44:13.629Z,6.70
2019-01-02T04:47:22.544Z,6.73
2019-01-02T04:50:14.135Z,6.90
2019-01-02T04:53:03.837Z,6.23
2019-01-02T04:55:53.763Z,6.00
2019-01-02T04:58:44.004Z,6.40
2019-01-02T05:01:33.520Z,5.80
2019-01-02T05:04:42.427Z,6.10
2019-01-02T05:07:51.155Z,6.47
2019-01-02T05:10:59.847Z,6.10
2019-01-02T05:13:49.540Z,6.37
2019-01-02T05:16:39.339Z,6.00
2019-01-02T05:19:28.798Z,6.53
2019-01-02T05:22:18.727Z,6.30
2019-01-02T05:25:08.812Z,6.07
2019-01-02T05:27:59.065Z,6.27
2019-01-02T05:31:07.746Z,6.40
2019-01-02T05:33:57.450Z,6.07
2019-01-02T05:36:47.730Z,6.20
2019-01-02T05:39:56.626Z,6.20
2019-01-02T05:42:46.419Z,6.57
2019-01-02T05:45:55.071Z,6.23
2019-01-02T05:49:03.980Z,6.83
2019-01-02T05:51:53.654Z,6.33
2019-01-02T05:54:43.613Z,6.23
2019-01-02T05:57:33.403Z,6.20
2019-01-02T06:00:43.275Z,6.57
2019-01-02T06:03:33.000Z,6.47
2019-01-02T06:06:41.779Z,6.93
2019-01-02T06:09:31.468Z,6.70
2019-01-02T06:12:41.058Z,6.70
2019-01-02T06:15:31.465Z,7.07
2019-01-02T06:18:40.454Z,7.50
2019-01-02T06:21:30.856Z,7.70
2019-01-02T06:24:40.482Z,7.70
2019-01-02T06:27:30.567Z,7.33
2019-01-02T06:30:20.103Z,7.37
2019-01-02T06:33:21.903Z,7.40
2019-01-02T06:36:11.899Z,7.13
2019-01-02T06:39:02.036Z,7.47
2019-01-02T06:42:10.721Z,8.40
2019-01-02T06:45:01.394Z,7.60
2019-01-02T06:48:10.623Z,7.70
2019-01-02T06:51:00.069Z,7.17
2019-01-02T06:53:49.812Z,8.10
2019-01-02T06:56:39.789Z,7.87
2019-01-02T06:59:29.531Z,7.80
2019-01-02T07:02:19.241Z,8.30
2019-01-02T07:05:28.347Z,8.13
2019-01-02T07:08:18.073Z,8.73
2019-01-02T07:11:07.626Z,7.97
2019-01-02T07:13:57.581Z,8.20
2019-01-02T07:17:06.514Z,8.33
2019-01-02T07:19:55.984Z,8.13
2019-01-02T07:23:08.161Z,7.63
2019-01-02T07:25:57.904Z,7.93
2019-01-02T07:28:48.136Z,7.37
2019-01-02T07:31:37.890Z,8.20
2019-01-02T07:35:05.683Z,7.80
2019-01-02T07:38:19.752Z,7.97
2019-01-02T07:41:47.589Z,8.17
2019-01-02T07:45:15.678Z,7.67
2019-01-02T07:48:43.737Z,7.73
2019-01-02T07:52:14.313Z,7.97
2019-01-02T07:55:42.379Z,8.03
2019-01-02T07:59:10.264Z,8.10
2019-01-02T08:02:38.115Z,8.00
2019-01-02T08:06:05.931Z,8.60
2019-01-02T08:09:34.004Z,8.80
2019-01-02T08:13:01.801Z,8.37
2019-01-02T08:16:29.818Z,8.87
2019-01-02T08:19:56.025Z,8.20
2019-01-02T08:23:13.134Z,8.47
2019-01-02T08:26:40.922Z,8.80
2019-01-02T08:30:11.473Z,8.23
2019-01-02T08:33:24.515Z,8.70
2019-01-02T08:36:52.635Z,9.00
2019-01-02T08:40:20.437Z,9.40
2019-01-02T08:43:35.170Z,9.20
2019-01-02T08:47:01.934Z,8.90
2019-01-02T08:50:29.769Z,9.23
2019-01-02T08:53:58.100Z,9.07
2019-01-02T08:57:13.788Z,9.20
2019-01-02T09:00:28.579Z,9.60
2019-01-02T09:03:56.421Z,9.03
2019-01-02T09:07:24.211Z,8.80
2019-01-02T09:10:52.170Z,8.73
2019-01-02T09:14:09.547Z,8.53
2019-01-02T09:17:37.374Z,9.07
2019-01-02T09:21:07.507Z,9.67
2019-01-02T09:24:35.323Z,9.90
2019-01-02T09:28:03.285Z,9.30
2019-01-02T09:31:31.088Z,9.83
2019-01-02T09:35:13.693Z,9.00
2019-01-02T09:42:03.027Z,8.80
2019-01-02T09:45:31.106Z,9.70
2019-01-02T09:48:38.206Z,9.13
2019-01-02T09:52:06.080Z,8.67
2019-01-02T09:55:33.882Z,9.10
2019-01-02T09:59:01.716Z,8.57
2019-01-02T10:02:29.534Z,8.80
2019-01-02T10:06:00.362Z,9.37
2019-01-02T10:09:28.161Z,8.87
2019-01-02T10:12:50.983Z,9.00
2019-01-02T10:16:19.011Z,8.87
2019-01-02T10:19:46.827Z,8.13
2019-01-02T10:23:01.243Z,8.63
2019-01-02T10:26:29.320Z,9.60
2019-01-02T10:29:57.141Z,8.53
2019-01-02T10:32:59.229Z,8.90
2019-01-02T10:36:27.098Z,8.97
2019-01-02T10:39:54.902Z,9.23
2019-01-02T10:47:11.786Z,9.17
2019-01-02T10:50:39.904Z,8.23
2019-01-02T10:54:07.980Z,9.27
2019-01-02T10:57:24.285Z,9.17
2019-01-02T11:00:52.175Z,8.90
2019-01-02T11:04:20.227Z,8.57
2019-01-02T11:07:33.359Z,8.57
2019-01-02T11:11:01.173Z,8.37
2019-01-02T11:14:24.791Z,8.43
2019-01-02T11:17:39.043Z,8.70
2019-01-02T11:21:06.866Z,8.50
2019-01-02T11:24:35.017Z,8.20
2019-01-02T11:28:00.772Z,8.17
2019-01-02T11:31:21.071Z,7.80
2019-01-02T11:34:34.961Z,7.80
2019-01-02T11:38:00.135Z,7.67
2019-01-02T11:41:27.945Z,8.17
2019-01-02T11:44:45.482Z,8.60
2019-01-02T11:47:35.519Z,8.00
2019-01-02T11:50:25.568Z,7.47
2019-01-02T11:53:15.349Z,8.03
2019-01-02T11:56:06.207Z,8.00
2019-01-02T11:58:57.019Z,8.40
2019-01-02T12:01:47.077Z,8.83
2019-01-02T12:04:36.597Z,8.13
2019-01-02T12:07:26.770Z,7.77
2019-01-02T12:13:13.585Z,8.80
2019-01-02T12:16:03.374Z,8.40
2019-01-02T12:19:13.854Z,9.10
2019-01-02T12:22:03.651Z,8.13
2019-01-02T12:24:53.578Z,8.50
2019-01-02T12:27:43.664Z,7.77
2019-01-02T12:30:34.313Z,8.43
2019-01-02T12:33:24.364Z,7.80
2019-01-02T12:36:33.050Z,7.70
2019-01-02T12:39:23.019Z,8.40
2019-01-02T12:42:12.775Z,8.27
2019-01-02T12:45:21.762Z,7.73
2019-01-02T12:48:11.740Z,7.67
2019-01-02T12:51:01.473Z,8.67
2019-01-02T12:53:51.718Z,8.53
2019-01-02T12:56:41.418Z,8.73
2019-01-02T12:59:31.647Z,8.00
2019-01-02T13:02:59.717Z,8.43
2019-01-02T13:06:28.464Z,8.63
2019-01-02T13:09:49.148Z,7.97
2019-01-02T13:13:16.972Z,8.40
2019-01-02T13:16:31.316Z,7.40
2019-01-02T13:23:20.083Z,8.57
2019-01-02T13:26:47.871Z,8.77
2019-01-02T13:30:08.658Z,8.97
2019-01-02T13:33:36.454Z,9.90
2019-01-02T13:37:04.274Z,9.27
2019-01-02T13:40:16.552Z,8.60
2019-01-02T13:43:45.083Z,9.13
2019-01-02T13:47:12.938Z,8.80
2019-01-02T13:50:25.699Z,8.53
2019-01-02T13:53:15.499Z,8.40
2019-01-02T13:56:24.708Z,8.57
2019-01-02T13:59:15.028Z,8.47
2019-01-02T14:02:04.961Z,9.23
2019-01-02T14:04:54.839Z,8.27
2019-01-02T14:07:45.820Z,8.30
2019-01-02T14:10:35.908Z,8.13
2019-01-02T14:13:27.054Z,7.70
2019-01-02T14:16:16.534Z,8.37
2019-01-02T14:19:06.344Z,7.37
2019-01-02T14:22:15.026Z,7.53
2019-01-02T14:25:04.941Z,7.37
2019-01-02T14:28:13.619Z,7.43
2019-01-02T14:31:22.374Z,7.30
2019-01-02T14:34:31.780Z,7.50
2019-01-02T14:37:21.568Z,7.17
2019-01-02T14:40:11.096Z,7.67
2019-01-02T14:43:01.464Z,7.20
2019-01-02T14:46:10.423Z,7.30
2019-01-02T14:48:59.912Z,7.50
2019-01-02T14:51:50.374Z,7.30
2019-01-02T14:54:40.390Z,6.90
2019-01-02T14:57:30.153Z,7.10
2019-01-02T15:00:38.835Z,7.30
2019-01-02T15:03:28.327Z,7.40
2019-01-02T15:06:18.410Z,7.53
2019-01-02T15:09:09.546Z,7.10
2019-01-02T15:12:18.328Z,7.23
2019-01-02T15:15:08.987Z,7.10
2019-01-02T15:17:58.817Z,6.87
2019-01-02T15:21:07.793Z,7.20
2019-01-02T15:23:58.396Z,7.00
2019-01-02T15:27:07.078Z,6.97
2019-01-02T15:30:09.057Z,7.40
2019-01-02T15:33:13.211Z,7.27
2019-01-02T15:36:02.955Z,7.07
2019-01-02T15:39:11.896Z,6.90
2019-01-02T15:42:20.818Z,6.53
2019-01-02T15:45:29.498Z,7.50
2019-01-02T15:48:19.344Z,6.70
2019-01-02T15:51:09.184Z,7.30
2019-01-02T15:54:19.127Z,7.83
2019-01-02T15:57:09.342Z,8.33
2019-01-02T15:59:59.071Z,8.03
2019-01-02T16:02:49.071Z,6.83
2019-01-02T16:05:39.053Z,6.47
2019-01-02T16:08:28.762Z,6.43
2019-01-02T16:11:38.005Z,7.17
2019-01-02T16:14:46.732Z,6.33
2019-01-02T16:17:36.192Z,6.50
2019-01-02T16:20:45.112Z,6.40
2019-01-02T16:23:35.210Z,6.70
2019-01-02T16:26:24.920Z,6.50
2019-01-02T16:29:14.780Z,6.77
2019-01-02T16:32:04.747Z,7.10
2019-01-02T16:34:54.726Z,6.97
2019-01-02T16:37:44.291Z,6.90
2019-01-02T16:40:34.076Z,6.50
2019-01-02T16:43:43.506Z,6.60
2019-01-02T16:46:33.438Z,6.83
2019-01-02T16:49:23.210Z,7.47
2019-01-02T16:52:13.366Z,6.67
2019-01-02T16:55:03.485Z,6.77
2019-01-02T16:58:12.307Z,6.90
2019-01-02T17:01:24.802Z,7.37
2019-01-02T17:04:14.593Z,7.10
2019-01-02T17:07:04.711Z,7.40
2019-01-02T17:09:54.374Z,6.93
2019-01-02T17:12:44.217Z,7.40
2019-01-02T17:15:34.690Z,7.17
2019-01-02T17:18:24.928Z,7.20
2019-01-02T17:21:34.560Z,7.50
2019-01-02T17:24:24.417Z,7.30
2019-01-02T17:27:33.088Z,7.40
2019-01-02T17:30:34.732Z,7.50
2019-01-02T17:33:24.304Z,7.40
2019-01-02T17:36:32.964Z,7.77
2019-01-02T17:39:22.841Z,7.40
2019-01-02T17:42:12.999Z,7.97
2019-01-02T17:45:04.169Z,7.47
2019-01-02T17:48:13.573Z,7.60
2019-01-02T17:51:07.381Z,8.90
2019-01-02T17:53:57.107Z,8.90
2019-01-02T17:56:47.458Z,8.60
2019-01-02T17:59:37.380Z,8.30
2019-01-02T18:02:27.299Z,8.77
2019-01-02T18:05:16.867Z,7.70
2019-01-02T18:08:06.672Z,8.10
2019-01-02T18:10:56.166Z,7.33
2019-01-02T18:13:45.998Z,7.47
2019-01-02T18:16:36.742Z,8.13
2019-01-02T18:19:26.222Z,7.30
2019-01-02T18:22:16.070Z,7.77
2019-01-02T18:25:05.734Z,8.50
2019-01-02T18:27:55.798Z,7.53
2019-01-02T18:30:45.776Z,7.80
2019-01-02T18:33:35.327Z,8.13
2019-01-02T18:36:24.814Z,8.07
2019-01-02T18:39:33.766Z,8.00
2019-01-02T18:42:23.598Z,7.33
2019-01-02T18:45:13.175Z,8.13
2019-01-02T18:48:02.671Z,8.00
2019-01-02T18:50:52.799Z,9.07
2019-01-02T18:54:01.711Z,7.97
2019-01-02T18:56:51.586Z,8.47
2019-01-02T18:59:41.415Z,8.77
2019-01-02T19:02:31.239Z,8.40
2019-01-02T19:05:21.002Z,9.00
2019-01-02T19:08:10.743Z,9.83
2019-01-02T19:11:00.461Z,10.30
2019-01-02T19:14:10.263Z,9.50
2019-01-02T19:17:00.359Z,9.60
2019-01-02T19:20:09.195Z,9.30
2019-01-02T19:26:35.625Z,9.70
2019-01-02T19:29:38.463Z,11.50
2019-01-02T19:32:28.019Z,11.40
2019-01-02T19:35:38.579Z,11.23
2019-01-02T19:38:47.533Z,11.03
2019-01-02T19:41:58.579Z,9.63
2019-01-02T19:44:48.370Z,9.07
2019-01-02T19:51:21.050Z,8.77
2019-01-02T19:54:03.179Z,8.70
2019-01-02T20:00:46.559Z,9.23
2019-01-02T20:03:38.067Z,9.20
2019-01-02T20:10:34.048Z,9.60
2019-01-02T20:13:47.872Z,9.70
2019-01-02T20:17:38.873Z,9.50
2019-01-02T20:20:26.882Z,8.60
2019-01-02T20:23:37.551Z,8.50
2019-01-02T20:26:33.689Z,8.37
2019-01-02T20:30:01.430Z,9.00
2019-01-02T20:32:51.063Z,8.77
2019-01-02T20:35:41.345Z,9.20
2019-01-02T20:38:50.148Z,9.70
2019-01-02T20:44:55.745Z,8.50
2019-01-02T20:48:04.806Z,8.03
2019-01-02T20:57:01.944Z,8.40
2019-01-02T20:59:52.054Z,8.13
2019-01-02T21:03:00.962Z,8.00
2019-01-02T21:05:51.951Z,8.37
2019-01-02T21:08:42.065Z,8.73
2019-01-02T21:11:31.785Z,8.37
2019-01-02T21:14:21.838Z,8.70
2019-01-02T21:17:11.638Z,7.90
2019-01-02T21:20:01.080Z,8.40
2019-01-02T21:22:52.891Z,8.50
2019-01-02T21:25:42.836Z,8.70
2019-01-02T21:28:32.690Z,8.83
2019-01-02T21:31:22.159Z,8.03
2019-01-02T21:34:12.965Z,8.70
2019-01-02T21:37:03.523Z,8.10
2019-01-02T21:40:12.344Z,7.97
2019-01-02T21:43:04.381Z,8.13
2019-01-02T21:45:57.361Z,8.03
2019-01-02T21:48:48.450Z,7.90
2019-01-02T21:51:38.787Z,7.33
2019-01-02T21:54:28.616Z,7.90
2019-01-02T21:57:18.066Z,7.90
2019-01-02T22:00:11.643Z,8.33
2019-01-02T22:03:20.659Z,8.40
2019-01-02T22:06:10.837Z,7.90
2019-01-02T22:09:19.521Z,7.43
2019-01-02T22:12:10.048Z,8.17
2019-01-02T22:15:00.299Z,8.00
2019-01-02T22:18:09.048Z,7.70
2019-01-02T22:21:19.522Z,8.07
2019-01-02T22:24:09.314Z,7.93
2019-01-02T22:26:59.257Z,7.60
2019-01-02T22:29:48.995Z,7.70
2019-01-02T22:32:38.631Z,7.80
2019-01-02T22:35:28.427Z,8.13
2019-01-02T22:38:18.296Z,8.20
2019-01-02T22:41:08.289Z,7.90
2019-01-02T22:43:58.967Z,8.00
2019-01-02T22:46:48.488Z,8.27
2019-01-02T22:49:38.620Z,7.90
2019-01-02T22:52:47.283Z,8.17
2019-01-02T22:55:36.977Z,8.20
2019-01-02T22:58:26.447Z,7.80
2019-01-02T23:01:35.880Z,7.47
2019-01-02T23:04:56.872Z,7.67
2019-01-02T23:08:08.584Z,8.17
2019-01-02T23:11:17.541Z,7.53
2019-01-02T23:14:26.773Z,7.20
2019-01-02T23:17:35.496Z,7.57
2019-01-02T23:20:44.772Z,7.20
2019-01-02T23:23:53.898Z,7.50
2019-01-02T23:27:02.605Z,7.60
2019-01-02T23:30:11.369Z,7.07
2019-01-02T23:33:20.294Z,7.30
2019-01-02T23:36:48.201Z,7.40
2019-01-02T23:39:57.255Z,7.70
2019-01-02T23:43:06.199Z,7.50
2019-01-02T23:46:15.879Z,7.70
2019-01-02T23:49:24.434Z,7.20
2019-01-02T23:52:33.141Z,7.70
2019-01-02T23:55:42.071Z,8.13
2019-01-02T23:58:50.521Z,7.73
